Beaufort MCAS - Merritt Field Beaufort US
ICAO: KNBC
IATA: NBC
Category: Medium
Scheduled Services: No

Elevation: 37 ft
TransAlt. 18000 ft.

Airport Communications:
APP/DEP:118.45
ATIS:27.8
GND/CLNC DEL:128.15
BASE OPS:28.18
PMSV METRO:26.45
TWR:119.05

KNBC Zoom In..

If you have problems with the map follow the link
https://www.worldairports.se/pages/airport.php?
ICAO=KNBC

Runways:

(A) RW 05 length 12202 ft width 200 ft
---- / hdg 47

(B) RW 14 length 7999 ft width 200 ft
---- / hdg 140

(C) RW 23 length 12202 ft width 200 ft
---- / hdg 227

(D) RW 32 length 7999 ft width 200 ft
---- / hdg 320

Location; KNBC
Day. 14 / Time. 21.56 Zulu
* Altimeter: 29.97
* Temperature: 17° c. 62.6°f.
* Wind from: VRB° Speed 04 kn.
Dewpoint: 17° c.
Visibility: 10 Statute Miles.
Clouds: Scattered 500 ft.
Clouds: Overcast 2200 ft.
Conditions: Light Rain.

KNBC 142156Z VRB04KT 10SM -RA SCT005 OVC022 17/17 A2997 RMK AO2 RAB41 SLP147 P0001 T01720172


Wind From VRB°
Speed 04 kn.

 
 
jpsmedia.com for Web Design worldairports.se 2018   terms of use